Time;durP1;ratioP1;P1;durP2;ratioP2;P2;SDS_P1;SDS_P2;PMS_P1;PMS_P2;Temp;Humidity;BMP_temperature;BMP_pressure;BME280_temperature;BME280_humidity;BME280_pressure;Samples;Min_cycle;Max_cycle;Signal;HPM_P1;HPM_P2
2021/12/08 00:00:25;;;;;;;36.33;18.47;;;;;;;0.50;nan;98122.22;5040891;28;20103;-53
2021/12/08 00:02:51;;;;;;;34.37;17.47;;;;;;;0.38;nan;98132.16;5034059;28;20037;-57
2021/12/08 00:05:18;;;;;;;39.37;19.53;;;;;;;0.26;nan;98130.28;5045560;28;20443;-57
2021/12/08 00:07:45;;;;;;;35.67;19.23;;;;;;;0.27;nan;98123.56;5051924;28;20044;-55
2021/12/08 00:10:29;;;;;;;36.43;18.23;;;;;;;0.31;nan;98121.13;5049443;28;20482;-55
2021/12/08 00:13:06;;;;;;;32.37;16.40;;;;;;;0.15;nan;98116.72;5029698;28;20037;-57
2021/12/08 00:15:35;;;;;;;34.63;16.63;;;;;;;0.03;nan;98116.53;5046604;28;20049;-54
2021/12/08 00:18:03;;;;;;;32.30;16.67;;;;;;;-0.08;nan;98120.56;5052805;28;20130;-56
2021/12/08 00:20:31;;;;;;;37.53;16.90;;;;;;;-0.18;nan;98111.19;5047367;28;20127;-54
2021/12/08 00:22:57;;;;;;;33.77;17.43;;;;;;;-0.33;nan;98103.41;5052152;28;20047;-55
2021/12/08 00:25:23;;;;;;;33.10;18.67;;;;;;;-0.41;nan;98110.84;5053390;28;20474;-54
2021/12/08 00:27:49;;;;;;;35.10;16.73;;;;;;;-0.53;nan;98120.72;5049778;28;20041;-57
2021/12/08 00:30:16;;;;;;;39.47;17.13;;;;;;;-0.62;nan;98113.88;5045063;28;20068;-57
2021/12/08 00:32:43;;;;;;;34.20;16.23;;;;;;;-0.67;nan;98120.50;5047656;28;20079;-57
2021/12/08 00:35:09;;;;;;;39.43;18.87;;;;;;;-0.77;nan;98116.13;5049298;28;20437;-55
2021/12/08 00:37:35;;;;;;;41.23;20.40;;;;;;;-0.83;nan;98115.16;5050733;28;20486;-54
2021/12/08 00:40:00;;;;;;;39.83;18.80;;;;;;;-0.89;nan;98115.09;5045486;28;20045;-56
2021/12/08 00:42:26;;;;;;;38.50;17.73;;;;;;;-0.96;nan;98106.56;5045273;28;20036;-56
2021/12/08 00:44:52;;;;;;;37.80;17.80;;;;;;;-1.00;nan;98102.31;5047194;28;20057;-56
2021/12/08 00:47:18;;;;;;;38.63;18.87;;;;;;;-1.03;nan;98107.28;5050528;28;20037;-57
2021/12/08 00:49:46;;;;;;;32.30;17.30;;;;;;;-1.11;nan;98097.09;5042906;28;20048;-54
2021/12/08 00:52:13;;;;;;;38.43;19.97;;;;;;;-1.12;nan;98102.94;5046307;28;20055;-57
2021/12/08 00:54:39;;;;;;;36.33;17.50;;;;;;;-1.13;nan;98103.75;5049153;28;20056;-56
2021/12/08 00:57:05;;;;;;;38.60;17.37;;;;;;;-1.16;nan;98100.34;5046488;28;20045;-56
2021/12/08 00:59:31;;;;;;;37.37;18.20;;;;;;;-1.23;nan;98089.31;5043381;28;20391;-57
2021/12/08 01:02:02;;;;;;;41.17;19.80;;;;;;;-1.30;nan;98091.69;5045728;28;20406;-57
2021/12/08 01:04:29;;;;;;;37.07;18.87;;;;;;;-1.33;nan;98089.13;5047395;28;20394;-57
2021/12/08 01:06:54;;;;;;;38.60;19.60;;;;;;;-1.41;nan;98081.44;5046241;28;20043;-55
2021/12/08 01:09:20;;;;;;;36.63;17.73;;;;;;;-1.48;nan;98090.50;5043913;28;20080;-57
2021/12/08 01:11:46;;;;;;;32.10;16.60;;;;;;;-1.54;nan;98092.91;5045629;28;20039;-53
2021/12/08 01:14:12;;;;;;;37.03;19.63;;;;;;;-1.61;nan;98077.69;5048747;28;20052;-57
2021/12/08 01:16:37;;;;;;;41.17;18.70;;;;;;;-1.65;nan;98078.44;5045456;28;20041;-56
2021/12/08 01:19:04;;;;;;;37.80;18.80;;;;;;;-1.69;nan;98082.53;5041895;28;20065;-57
2021/12/08 01:21:29;;;;;;;37.33;19.80;;;;;;;-1.75;nan;98077.41;5045987;28;20457;-57
2021/12/08 01:23:54;;;;;;;33.40;18.30;;;;;;;-1.79;nan;98075.66;5048126;28;20033;-57
2021/12/08 01:26:20;;;;;;;37.83;18.73;;;;;;;-1.81;nan;98066.38;5044167;28;20419;-56
2021/12/08 01:28:46;;;;;;;40.20;19.87;;;;;;;-1.85;nan;98061.31;5047799;28;20040;-57
2021/12/08 01:31:12;;;;;;;40.23;19.63;;;;;;;-1.86;nan;98063.78;5048370;28;20080;-56
2021/12/08 01:33:37;;;;;;;33.37;17.13;;;;;;;-1.90;nan;98059.50;5052653;28;20036;-57
2021/12/08 01:36:06;;;;;;;39.03;19.03;;;;;;;-1.90;nan;98054.47;5049598;28;20045;-55
2021/12/08 01:38:33;;;;;;;42.17;19.27;;;;;;;-1.98;nan;98046.78;5045726;28;20470;-55
2021/12/08 01:40:58;;;;;;;42.23;18.80;;;;;;;-2.06;nan;98043.28;5050948;28;20114;-57
2021/12/08 01:43:26;;;;;;;37.27;18.43;;;;;;;-2.12;nan;98035.59;5051471;28;20466;-56
2021/12/08 01:46:03;;;;;;;38.17;17.70;;;;;;;-2.10;nan;98038.16;5045116;28;20045;-57
2021/12/08 01:48:32;;;;;;;41.63;19.83;;;;;;;-2.10;nan;98040.66;5045900;28;20620;-58
2021/12/08 01:51:04;;;;;;;41.90;18.47;;;;;;;-2.18;nan;98030.47;5048266;28;20438;-58
2021/12/08 01:53:30;;;;;;;37.67;20.67;;;;;;;-2.22;nan;98023.69;5053061;28;20532;-58
2021/12/08 01:55:56;;;;;;;44.00;20.27;;;;;;;-2.18;nan;98017.06;5046540;28;20086;-58
2021/12/08 01:58:23;;;;;;;33.60;18.80;;;;;;;-2.22;nan;97998.59;5048514;28;20478;-57
2021/12/08 02:00:57;;;;;;;43.40;20.40;;;;;;;-2.10;nan;98000.50;5050939;28;20041;-55
2021/12/08 02:03:23;;;;;;;44.87;21.07;;;;;;;-2.10;nan;97996.34;5051649;28;20037;-57
2021/12/08 02:05:49;;;;;;;45.93;21.23;;;;;;;-2.05;nan;97988.91;5045388;28;20124;-57
2021/12/08 02:08:15;;;;;;;44.17;20.67;;;;;;;-2.01;nan;97989.00;5052058;28;20094;-57
2021/12/08 02:10:41;;;;;;;36.00;19.90;;;;;;;-1.96;nan;97992.44;5048460;28;20065;-55
2021/12/08 02:13:08;;;;;;;44.23;20.97;;;;;;;-1.88;nan;97995.09;5045850;28;20131;-57
2021/12/08 02:15:35;;;;;;;43.03;20.33;;;;;;;-1.82;nan;97991.88;5044931;28;20110;-56
2021/12/08 02:18:01;;;;;;;47.50;22.97;;;;;;;-1.76;nan;97991.97;5049819;28;20095;-55
2021/12/08 02:20:28;;;;;;;38.93;19.47;;;;;;;-1.65;nan;97990.47;5049656;28;20037;-55
2021/12/08 02:22:54;;;;;;;46.10;20.73;;;;;;;-1.61;nan;97983.03;5050617;28;20608;-52
2021/12/08 02:25:23;;;;;;;44.40;22.40;;;;;;;-1.49;nan;97980.75;5048584;28;20059;-57
2021/12/08 02:27:49;;;;;;;43.47;22.27;;;;;;;-1.41;nan;97983.41;5051527;28;20033;-54
2021/12/08 02:30:26;;;;;;;43.73;23.63;;;;;;;-1.33;nan;97981.03;5051858;28;20463;-56
2021/12/08 02:47:05;;;;;;;46.53;21.33;;;;;;;-0.95;nan;97963.22;5047627;28;20043;-56
2021/12/08 02:49:22;;;;;;;44.70;20.17;;;;;;;-0.84;nan;97963.34;5048774;28;20368;-54
2021/12/08 02:51:50;;;;;;;42.70;19.07;;;;;;;-0.80;nan;97950.00;5048125;28;20398;-56
2021/12/08 02:54:16;;;;;;;39.60;20.30;;;;;;;-0.79;nan;97946.66;5046485;28;20067;-56
2021/12/08 02:56:42;;;;;;;46.13;22.00;;;;;;;-0.80;nan;97939.09;5045950;28;20488;-54
2021/12/08 02:59:08;;;;;;;36.63;18.10;;;;;;;-0.77;nan;97940.00;5049981;28;20037;-57
2021/12/08 03:01:35;;;;;;;44.03;19.30;;;;;;;-0.76;nan;97939.16;5045776;28;20049;-57
2021/12/08 03:04:00;;;;;;;33.97;17.83;;;;;;;-0.69;nan;97950.16;5046686;28;20384;-55
2021/12/08 03:06:26;;;;;;;34.70;18.57;;;;;;;-0.68;nan;97941.81;5054322;28;20045;-55
2021/12/08 03:08:51;;;;;;;35.53;18.33;;;;;;;-0.68;nan;97941.81;5049397;28;20033;-56
2021/12/08 03:11:17;;;;;;;40.53;19.07;;;;;;;-0.64;nan;97936.84;5050276;28;20051;-56
2021/12/08 03:13:57;;;;;;;38.90;19.33;;;;;;;-0.58;nan;97943.59;5042771;28;20403;-54
2021/12/08 03:16:22;;;;;;;34.37;17.60;;;;;;;-0.63;nan;97938.50;5053058;28;20040;-53
2021/12/08 03:18:48;;;;;;;34.43;17.87;;;;;;;-0.62;nan;97939.34;5052963;28;20037;-55
2021/12/08 03:21:14;;;;;;;39.10;17.40;;;;;;;-0.55;nan;97931.91;5050346;28;20040;-54
2021/12/08 03:26:11;;;;;;;37.60;19.20;;;;;;;-0.51;nan;97917.72;5051457;28;20556;-55
2021/12/08 03:28:43;;;;;;;31.37;16.90;;;;;;;-0.49;nan;97932.00;5047714;28;20040;-55
2021/12/08 03:31:14;;;;;;;34.17;18.03;;;;;;;-0.47;nan;97920.25;5048797;28;20147;-54
2021/12/08 03:33:43;;;;;;;33.97;17.93;;;;;;;-0.40;nan;97925.38;5051027;28;20052;-56
2021/12/08 03:36:09;;;;;;;33.87;17.47;;;;;;;-0.43;nan;97918.66;5050896;28;20382;-54
2021/12/08 03:38:35;;;;;;;37.97;19.47;;;;;;;-0.46;nan;97906.00;5044372;28;20040;-55
2021/12/08 03:41:03;;;;;;;35.50;18.00;;;;;;;-0.40;nan;97911.13;5049610;28;20047;-56
2021/12/08 03:43:29;;;;;;;31.73;16.90;;;;;;;-0.42;nan;97906.91;5052177;28;20449;-55
2021/12/08 03:45:56;;;;;;;34.67;16.90;;;;;;;-0.44;nan;97904.34;5055911;28;20068;-56
2021/12/08 03:48:31;;;;;;;34.63;17.10;;;;;;;-0.53;nan;97889.97;5051252;28;20051;-55
2021/12/08 03:50:57;;;;;;;36.00;18.55;;;;;;;-0.57;nan;97898.31;5049763;28;20037;-56
2021/12/08 03:53:23;;;;;;;35.00;17.70;;;;;;;-0.71;nan;97898.97;5053043;28;20098;-57
2021/12/08 03:55:51;;;;;;;39.13;18.30;;;;;;;-0.76;nan;97900.56;5053702;28;20474;-54
2021/12/08 03:58:17;;;;;;;35.53;17.20;;;;;;;-0.89;nan;97901.25;5048149;28;20095;-56
2021/12/08 04:00:46;;;;;;;32.80;17.20;;;;;;;-1.06;nan;97895.97;5052635;28;20120;-55
2021/12/08 04:03:12;;;;;;;41.03;18.27;;;;;;;-1.15;nan;97896.69;5054841;28;20132;-55
2021/12/08 04:05:54;;;;;;;35.73;17.33;;;;;;;-1.22;nan;97891.50;5055254;28;20120;-56
2021/12/08 04:08:30;;;;;;;36.63;17.77;;;;;;;-1.26;nan;97885.59;5047719;28;20073;-56
2021/12/08 04:10:57;;;;;;;43.20;18.50;;;;;;;-1.42;nan;97876.97;5048103;28;20071;-54
2021/12/08 04:13:32;;;;;;;36.67;17.33;;;;;;;-1.45;nan;97891.19;5053060;28;20060;-56
2021/12/08 04:15:59;;;;;;;44.67;19.35;;;;;;;-1.50;nan;97883.56;5054373;28;20044;-56
2021/12/08 04:18:25;;;;;;;35.37;17.57;;;;;;;-1.49;nan;97880.22;5048672;28;20097;-57
2021/12/08 04:20:55;;;;;;;37.23;17.17;;;;;;;-1.48;nan;97881.06;5030154;28;20476;-58
2021/12/08 04:23:23;;;;;;;38.97;18.73;;;;;;;-1.42;nan;97883.69;5051739;28;20044;-57
2021/12/08 04:25:52;;;;;;;38.10;17.67;;;;;;;-1.39;nan;97877.03;5048575;28;20608;-57
2021/12/08 04:28:27;;;;;;;41.00;19.07;;;;;;;-1.31;nan;97869.59;5046468;28;20047;-55
2021/12/08 04:31:04;;;;;;;40.53;18.05;;;;;;;-1.32;nan;97862.91;5050673;28;20037;-54
2021/12/08 04:33:31;;;;;;;41.80;19.07;;;;;;;-1.42;nan;97866.09;5052949;28;20090;-56
2021/12/08 04:35:57;;;;;;;44.27;20.97;;;;;;;-1.48;nan;97856.78;5053422;28;20043;-56
2021/12/08 04:38:31;;;;;;;44.37;20.17;;;;;;;-1.44;nan;97865.19;5046846;28;20033;-57
2021/12/08 04:41:06;;;;;;;48.47;25.03;;;;;;;-1.52;nan;97865.09;5048592;28;20561;-53
2021/12/08 04:43:56;;;;;;;43.53;19.37;;;;;;;-1.55;nan;97869.22;5053121;28;20052;-55
2021/12/08 04:46:49;;;;;;;46.73;21.20;;;;;;;-1.56;nan;97862.50;5050611;28;20048;-54
2021/12/08 05:08:21;;;;;;;44.37;21.13;;;;;;;-1.70;nan;97824.63;4949273;28;20051;-53
2021/12/08 05:10:49;;;;;;;48.07;22.40;;;;;;;-1.77;nan;97826.97;4952357;28;20579;-58
2021/12/08 05:13:16;;;;;;;51.17;22.97;;;;;;;-1.91;nan;97820.06;4950014;28;20126;-56
2021/12/08 05:15:55;;;;;;;54.77;23.00;;;;;;;-1.89;nan;97820.09;4947788;28;20125;-54
2021/12/08 05:18:28;;;;;;;54.33;23.33;;;;;;;-2.02;nan;97813.16;4951864;28;20051;-54
2021/12/08 05:21:01;;;;;;;49.60;23.03;;;;;;;-2.17;nan;97815.44;4955259;28;20075;-57
2021/12/08 05:23:30;;;;;;;61.90;26.77;;;;;;;-2.18;nan;97816.25;4947240;28;20066;-57
2021/12/08 05:25:58;;;;;;;62.47;25.93;;;;;;;-2.30;nan;97814.38;4950684;28;20460;-55
2021/12/08 05:28:25;;;;;;;53.93;24.63;;;;;;;-2.34;nan;97817.66;4955050;28;20047;-57
2021/12/08 05:30:56;;;;;;;57.13;25.33;;;;;;;-2.40;nan;97810.00;4951688;28;20042;-57
2021/12/08 05:33:23;;;;;;;66.37;28.33;;;;;;;-2.39;nan;97806.66;4979931;28;20052;-56
2021/12/08 05:35:49;;;;;;;78.60;33.70;;;;;;;-2.42;nan;97804.94;5052099;28;20086;-57
2021/12/08 05:38:17;;;;;;;77.10;34.93;;;;;;;-2.39;nan;97804.16;5053099;28;20486;-54
2021/12/08 05:40:53;;;;;;;72.50;29.97;;;;;;;-2.36;nan;97799.19;5051537;28;20052;-55
2021/12/08 05:43:20;;;;;;;61.13;26.03;;;;;;;-2.39;nan;97805.00;5045048;28;20140;-58
2021/12/08 05:45:48;;;;;;;57.90;26.93;;;;;;;-2.34;nan;97795.06;5050945;28;20041;-57
2021/12/08 05:48:14;;;;;;;57.40;27.10;;;;;;;-2.37;nan;97785.78;5057282;28;20050;-55
2021/12/08 05:50:39;;;;;;;59.83;27.67;;;;;;;-2.33;nan;97789.19;5054522;28;20068;-56
2021/12/08 05:53:05;;;;;;;58.93;27.63;;;;;;;-2.36;nan;97779.13;5052632;28;20065;-56
2021/12/08 05:55:33;;;;;;;56.67;26.13;;;;;;;-2.31;nan;97778.38;5049050;28;20073;-53
2021/12/08 05:57:58;;;;;;;63.13;26.93;;;;;;;-2.31;nan;97780.91;5051549;28;20033;-55
2021/12/08 06:00:30;;;;;;;60.97;25.20;;;;;;;-2.26;nan;97777.63;5047968;28;20041;-53
2021/12/08 06:02:56;;;;;;;66.73;26.53;;;;;;;-2.27;nan;97774.25;5045776;28;20068;-58
2021/12/08 06:05:31;;;;;;;51.97;24.60;;;;;;;-2.25;nan;97776.81;5045397;28;20643;-55
2021/12/08 06:07:57;;;;;;;62.85;25.45;;;;;;;-2.26;nan;97767.56;5052921;28;20037;-55
2021/12/08 06:10:29;;;;;;;59.20;23.87;;;;;;;-2.24;nan;97773.44;5049549;28;20037;-57
2021/12/08 06:12:56;;;;;;;53.87;22.97;;;;;;;-2.28;nan;97769.19;5045670;28;20033;-57
2021/12/08 06:15:22;;;;;;;51.43;25.17;;;;;;;-2.36;nan;97764.06;5048652;28;20215;-57
2021/12/08 06:17:48;;;;;;;51.27;23.33;;;;;;;-2.43;nan;97760.59;5050489;28;20151;-56
2021/12/08 06:20:15;;;;;;;57.70;23.77;;;;;;;-2.46;nan;97754.69;5046307;28;20260;-56
2021/12/08 06:22:41;;;;;;;51.33;23.33;;;;;;;-2.48;nan;97763.84;5048096;28;20121;-57
2021/12/08 06:25:11;;;;;;;53.57;24.77;;;;;;;-2.53;nan;97762.91;5050094;28;20769;-55
2021/12/08 06:27:36;;;;;;;53.77;22.03;;;;;;;-2.60;nan;97756.09;5049017;28;20490;-53
2021/12/08 06:30:05;;;;;;;57.37;23.67;;;;;;;-2.57;nan;97761.16;5045701;28;20036;-57
2021/12/08 06:32:31;;;;;;;53.17;22.97;;;;;;;-2.66;nan;97743.44;5048356;28;20036;-54
2021/12/08 06:34:58;;;;;;;59.20;27.50;;;;;;;-2.68;nan;97742.56;5050856;28;20093;-55
2021/12/08 06:37:43;;;;;;;55.57;25.03;;;;;;;-2.60;nan;97748.56;5048947;28;20402;-53
2021/12/08 06:40:27;;;;;;;60.35;24.95;;;;;;;-2.62;nan;97746.03;5044402;28;20120;-54
2021/12/08 06:42:58;;;;;;;71.90;30.80;;;;;;;-2.68;nan;97745.09;5049808;28;20037;-52
2021/12/08 06:45:30;;;;;;;65.83;28.57;;;;;;;-2.72;nan;97731.66;5050538;28;20372;-56
2021/12/08 06:47:59;;;;;;;61.30;26.50;;;;;;;-2.71;nan;97734.97;5047094;28;20041;-53
2021/12/08 06:50:29;;;;;;;58.73;28.33;;;;;;;-2.73;nan;97731.59;5045411;28;20037;-53
2021/12/08 06:52:56;;;;;;;61.87;26.17;;;;;;;-2.74;nan;97734.94;5051534;28;20037;-57
2021/12/08 06:55:38;;;;;;;58.30;27.57;;;;;;;-2.73;nan;97739.97;5048945;28;20429;-57
2021/12/08 06:58:08;;;;;;;49.30;23.87;;;;;;;-2.76;nan;97732.41;5048098;28;20106;-56
2021/12/08 07:00:53;;;;;;;50.27;23.43;;;;;;;-2.78;nan;97734.88;5045590;28;20037;-56
2021/12/08 07:03:41;;;;;;;51.77;23.73;;;;;;;-2.76;nan;97733.22;5049576;28;20044;-58
2021/12/08 07:07:02;;;;;;;55.20;24.17;;;;;;;-2.74;nan;97735.78;5050462;28;20290;-57
2021/12/08 07:09:03;;;;;;;55.03;23.67;;;;;;;-2.69;nan;97736.72;5041871;28;20408;-57
2021/12/08 07:11:28;;;;;;;63.07;27.77;;;;;;;-2.67;nan;97730.03;5049374;28;20041;-54
2021/12/08 07:13:55;;;;;;;61.70;27.57;;;;;;;-2.59;nan;97731.06;5054747;28;20033;-53
2021/12/08 07:16:28;;;;;;;67.43;27.97;;;;;;;-2.54;nan;97713.53;5053349;28;21007;-54
2021/12/08 07:19:11;;;;;;;55.57;26.93;;;;;;;-2.42;nan;97724.63;5050504;28;20634;-56
2021/12/08 07:21:44;;;;;;;56.27;27.43;;;;;;;-2.36;nan;97721.41;5054467;28;20048;-57
2021/12/08 07:24:11;;;;;;;65.83;27.60;;;;;;;-2.33;nan;97714.75;5053892;28;20060;-53
2021/12/08 07:26:39;;;;;;;62.93;29.30;;;;;;;-2.26;nan;97717.38;5048835;28;20033;-56
2021/12/08 07:29:09;;;;;;;60.27;26.23;;;;;;;-2.18;nan;97708.31;5050239;28;20077;-56
2021/12/08 07:31:41;;;;;;;59.13;25.67;;;;;;;-2.08;nan;97703.44;5056548;28;20049;-57
2021/12/08 07:34:09;;;;;;;46.53;22.33;;;;;;;-1.98;nan;97701.91;5053203;28;20067;-56
2021/12/08 07:36:38;;;;;;;46.87;21.37;;;;;;;-1.88;nan;97709.63;5055274;28;20041;-58
2021/12/08 07:39:08;;;;;;;47.87;22.30;;;;;;;-1.74;nan;97708.97;5052983;28;20043;-57
2021/12/08 07:41:39;;;;;;;43.33;20.63;;;;;;;-1.63;nan;97699.91;5056013;28;20382;-56
2021/12/08 07:44:09;;;;;;;43.90;19.63;;;;;;;-1.52;nan;97704.25;5032457;28;20522;-56
2021/12/08 07:46:42;;;;;;;42.47;22.13;;;;;;;-1.39;nan;97695.19;5051874;28;20061;-57
2021/12/08 07:49:13;;;;;;;40.70;19.87;;;;;;;-1.29;nan;97698.69;5049660;28;20048;-58
2021/12/08 07:51:44;;;;;;;41.93;19.73;;;;;;;-1.12;nan;97699.72;5044583;28;20048;-57
2021/12/08 07:54:11;;;;;;;36.33;18.30;;;;;;;-1.13;nan;97688.81;5047148;28;20037;-55
2021/12/08 07:56:40;;;;;;;36.97;16.93;;;;;;;-0.92;nan;97700.78;5054703;28;20065;-55
2021/12/08 07:59:09;;;;;;;29.20;15.53;;;;;;;-0.81;nan;97691.69;5049452;28;20048;-55
2021/12/08 08:01:40;;;;;;;28.90;14.43;;;;;;;-0.61;nan;97694.41;5046865;28;20065;-53
2021/12/08 08:04:09;;;;;;;33.83;18.30;;;;;;;-0.48;nan;97693.69;5047028;28;20059;-57
2021/12/08 08:06:39;;;;;;;32.67;15.27;;;;;;;-0.42;nan;97680.31;5047673;28;20115;-58
2021/12/08 08:09:09;;;;;;;31.20;15.17;;;;;;;-0.26;nan;97680.47;5045417;28;20044;-55
2021/12/08 08:11:41;;;;;;;32.70;16.37;;;;;;;-0.16;nan;97668.75;5051388;28;20443;-55
2021/12/08 08:14:09;;;;;;;28.33;15.03;;;;;;;-0.12;nan;97661.25;5052788;28;20033;-58
2021/12/08 08:16:36;;;;;;;29.60;15.63;;;;;;;-0.04;nan;97667.19;5053564;28;20052;-56
2021/12/08 08:19:11;;;;;;;27.70;15.93;;;;;;;0.15;nan;97667.31;5049379;28;20041;-57
2021/12/08 08:21:42;;;;;;;25.57;12.47;;;;;;;0.23;nan;97658.97;5050248;28;20124;-57
2021/12/08 08:24:09;;;;;;;21.83;12.73;;;;;;;0.29;nan;97650.59;5053558;28;20049;-56
2021/12/08 08:26:36;;;;;;;22.33;12.20;;;;;;;0.25;nan;97649.75;5051663;28;20663;-55
2021/12/08 08:29:03;;;;;;;22.40;12.80;;;;;;;0.36;nan;97649.78;5044874;28;20032;-54
2021/12/08 08:31:34;;;;;;;23.13;13.10;;;;;;;0.55;nan;97644.03;5044393;28;20106;-53
2021/12/08 08:34:00;;;;;;;26.27;13.83;;;;;;;0.56;nan;97642.31;5049158;28;20113;-54
2021/12/08 08:36:31;;;;;;;21.83;12.77;;;;;;;0.70;nan;97646.59;5046697;28;20025;-52
2021/12/08 08:39:12;;;;;;;25.40;12.93;;;;;;;0.80;nan;97629.81;5044733;28;20041;-53
2021/12/08 08:41:40;;;;;;;25.83;14.13;;;;;;;0.84;nan;97623.94;5050187;28;20040;-56
2021/12/08 08:44:17;;;;;;;22.27;11.10;;;;;;;1.06;nan;97629.88;5049648;28;20049;-56
2021/12/08 08:46:46;;;;;;;20.07;10.40;;;;;;;1.14;nan;97618.97;5046084;28;20071;-54
2021/12/08 08:49:24;;;;;;;20.47;11.13;;;;;;;1.20;nan;97613.06;5045740;28;20040;-60
2021/12/08 08:51:59;;;;;;;19.23;10.33;;;;;;;1.36;nan;97614.75;5049716;28;20429;-58
2021/12/08 08:54:29;;;;;;;16.97;9.83;;;;;;;1.48;nan;97614.78;5043434;28;20453;-57
2021/12/08 08:57:26;;;;;;;16.80;8.83;;;;;;;1.56;nan;97602.16;5052298;28;20033;-58
2021/12/08 08:59:56;;;;;;;14.90;8.50;;;;;;;1.54;nan;97599.63;5041687;28;20132;-57
2021/12/08 09:02:30;;;;;;;13.63;7.90;;;;;;;1.70;nan;97600.44;5050235;28;20037;-57
2021/12/08 09:05:03;;;;;;;14.80;7.67;;;;;;;1.78;nan;97583.63;5044665;28;20092;-57
2021/12/08 09:07:34;;;;;;;13.27;8.37;;;;;;;1.91;nan;97589.50;5047798;28;20036;-57
2021/12/08 09:10:05;;;;;;;13.10;7.73;;;;;;;1.95;nan;97581.91;5047677;28;20678;-57
2021/12/08 09:12:42;;;;;;;11.40;8.20;;;;;;;2.03;nan;97581.88;5049922;28;20033;-58
2021/12/08 09:15:22;;;;;;;17.13;9.93;;;;;;;2.09;nan;97579.31;5047898;28;20049;-57
2021/12/08 09:18:02;;;;;;;14.13;8.53;;;;;;;2.26;nan;97575.91;5046631;28;20037;-55
2021/12/08 09:20:34;;;;;;;10.93;7.73;;;;;;;2.38;nan;97572.47;5050039;28;20044;-58
2021/12/08 09:23:46;;;;;;;12.83;7.13;;;;;;;2.57;nan;97561.47;5051364;28;20036;-57
2021/12/08 09:26:15;;;;;;;12.33;7.93;;;;;;;2.54;nan;97558.09;5004874;28;20038;-57
2021/12/08 09:28:45;;;;;;;15.07;9.00;;;;;;;2.69;nan;97543.69;5006243;28;20511;-58
2021/12/08 09:31:26;;;;;;;12.73;6.80;;;;;;;2.73;nan;97544.50;5004797;28;20025;-58
2021/12/08 09:34:15;;;;;;;11.33;6.47;;;;;;;2.84;nan;97552.03;5006052;28;20578;-58
2021/12/08 09:36:51;;;;;;;12.17;7.87;;;;;;;2.89;nan;97546.09;5006635;28;20042;-56
2021/12/08 09:39:40;;;;;;;13.77;7.70;;;;;;;2.76;nan;97539.41;5010227;28;20045;-56
2021/12/08 09:42:17;;;;;;;9.73;6.97;;;;;;;3.03;nan;97525.75;5003403;28;20046;-59
2021/12/08 09:44:49;;;;;;;11.10;7.03;;;;;;;3.18;nan;97525.66;5010079;28;20048;-59
2021/12/08 09:47:15;;;;;;;9.20;7.40;;;;;;;3.05;nan;97519.00;5009358;28;20169;-57
2021/12/08 09:49:41;;;;;;;11.33;7.77;;;;;;;3.15;nan;97518.91;5006292;28;20574;-56
2021/12/08 09:52:08;;;;;;;10.70;7.30;;;;;;;3.10;nan;97509.66;5004959;28;20049;-58
2021/12/08 09:54:37;;;;;;;10.17;6.60;;;;;;;3.14;nan;97507.09;5010509;28;20124;-58
2021/12/08 09:57:07;;;;;;;9.73;6.13;;;;;;;3.36;nan;97505.22;5009151;28;20077;-56
2021/12/08 09:59:34;;;;;;;11.63;6.80;;;;;;;3.34;nan;97501.88;5003448;28;20084;-58
2021/12/08 10:02:04;;;;;;;8.37;6.80;;;;;;;3.46;nan;97494.16;5010623;28;20056;-56
2021/12/08 10:04:29;;;;;;;11.77;7.13;;;;;;;3.50;nan;97488.22;5060257;28;20060;-56
2021/12/08 10:06:59;;;;;;;9.73;6.30;;;;;;;3.71;nan;97491.38;5050543;28;20051;-55
2021/12/08 10:09:24;;;;;;;10.50;6.60;;;;;;;3.76;nan;97482.03;5045779;28;20390;-57
2021/12/08 10:11:54;;;;;;;10.23;6.40;;;;;;;3.80;nan;97479.44;5045791;28;20044;-56
2021/12/08 10:14:19;;;;;;;9.90;6.60;;;;;;;3.85;nan;97466.72;5046395;28;20490;-58
2021/12/08 10:16:46;;;;;;;10.43;7.23;;;;;;;3.91;nan;97471.72;5046139;28;20056;-57
2021/12/08 10:19:15;;;;;;;9.43;6.53;;;;;;;3.72;nan;97462.66;5046442;28;20048;-58
2021/12/08 10:21:42;;;;;;;9.83;6.90;;;;;;;3.65;nan;97464.41;5044764;28;20037;-57
2021/12/08 10:24:21;;;;;;;10.00;6.47;;;;;;;3.80;nan;97455.78;5046643;28;20025;-52
2021/12/08 10:26:48;;;;;;;8.40;5.83;;;;;;;3.86;nan;97454.00;5044309;28;20044;-55
2021/12/08 10:29:13;;;;;;;18.90;8.40;;;;;;;3.98;nan;97453.91;5041520;28;20090;-55
2021/12/08 10:31:45;;;;;;;12.00;6.40;;;;;;;4.03;nan;97451.31;5044393;28;20052;-52
2021/12/08 10:34:47;;;;;;;18.43;7.93;;;;;;;4.04;nan;97452.97;5042891;28;20033;-55
2021/12/08 10:37:19;;;;;;;13.47;6.67;;;;;;;4.12;nan;97449.47;5044647;28;20028;-56
2021/12/08 10:39:48;;;;;;;13.00;6.63;;;;;;;4.18;nan;97435.03;5043084;28;20093;-56
2021/12/08 10:42:18;;;;;;;10.27;5.90;;;;;;;4.33;nan;97448.34;5047238;28;20041;-56
2021/12/08 10:44:57;;;;;;;6.30;4.53;;;;;;;4.54;nan;97430.28;5040687;28;20400;-53
2021/12/08 10:47:28;;;;;;;7.57;4.40;;;;;;;4.53;nan;97428.63;5040616;28;20045;-53
2021/12/08 10:56:15;;;;;;;4.87;3.40;;;;;;;5.08;nan;97425.25;5045897;28;20044;-53
2021/12/08 10:58:47;;;;;;;4.20;3.70;;;;;;;4.92;nan;97418.75;5046548;28;20041;-54
2021/12/08 11:01:20;;;;;;;6.03;3.80;;;;;;;4.82;nan;97418.03;5049801;28;20041;-58
2021/12/08 11:03:47;;;;;;;4.57;3.27;;;;;;;4.88;nan;97406.97;5050839;28;20049;-58
2021/12/08 11:06:16;;;;;;;3.60;3.00;;;;;;;4.79;nan;97409.63;5050184;28;20049;-60
2021/12/08 11:08:47;;;;;;;4.60;3.33;;;;;;;4.75;nan;97410.56;5048433;28;20052;-60
2021/12/08 11:11:20;;;;;;;5.60;3.83;;;;;;;4.71;nan;97412.28;5052417;28;20032;-60
2021/12/08 11:13:52;;;;;;;6.10;3.30;;;;;;;4.52;nan;97410.88;5056818;28;20681;-59
2021/12/08 11:16:20;;;;;;;4.30;3.13;;;;;;;4.61;nan;97415.84;5051626;28;20052;-56
2021/12/08 11:18:49;;;;;;;4.07;2.90;;;;;;;4.58;nan;97424.31;5053345;28;20117;-56
2021/12/08 11:21:21;;;;;;;5.80;3.33;;;;;;;4.65;nan;97430.16;5058621;28;20033;-59
2021/12/08 11:23:50;;;;;;;3.73;3.33;;;;;;;4.52;nan;97415.97;5048775;28;20052;-59
2021/12/08 11:26:15;;;;;;;4.60;3.60;;;;;;;4.35;nan;97412.81;5050951;28;20072;-59
2021/12/08 11:28:42;;;;;;;6.80;3.73;;;;;;;4.42;nan;97407.63;5054338;28;20072;-60
2021/12/08 11:31:12;;;;;;;6.47;3.80;;;;;;;4.46;nan;97408.44;5060286;28;20082;-60
2021/12/08 11:33:42;;;;;;;6.43;3.70;;;;;;;4.42;nan;97397.50;5034834;28;20425;-58
2021/12/08 11:36:21;;;;;;;4.03;3.60;;;;;;;4.73;nan;97385.19;5054981;28;20032;-61
2021/12/08 11:38:50;;;;;;;4.20;2.70;;;;;;;4.68;nan;97388.66;5055361;28;20364;-56
2021/12/08 11:41:34;;;;;;;5.37;3.43;;;;;;;4.90;nan;97387.44;5056786;28;20033;-59
2021/12/08 11:44:01;;;;;;;5.47;3.27;;;;;;;4.94;nan;97369.59;5044532;28;20072;-58
2021/12/08 11:46:32;;;;;;;4.43;3.40;;;;;;;4.98;nan;97383.91;5056854;28;20033;-58
2021/12/08 11:49:07;;;;;;;7.50;3.47;;;;;;;4.99;nan;97393.22;5053729;28;20557;-60
2021/12/08 11:51:44;;;;;;;4.05;2.88;;;;;;;5.03;nan;97386.38;5055465;28;20110;-58
2021/12/08 11:54:42;;;;;;;4.90;3.60;;;;;;;4.97;nan;97378.84;5049016;28;20128;-59
2021/12/08 11:57:18;;;;;;;5.40;3.27;;;;;;;4.75;nan;97378.38;5054432;28;20035;-60
2021/12/08 12:00:14;;;;;;;4.67;3.43;;;;;;;4.76;nan;97381.75;5051858;28;20533;-58
2021/12/08 12:02:44;;;;;;;4.70;3.40;;;;;;;4.68;nan;97386.09;5050295;28;20041;-58
2021/12/08 12:05:14;;;;;;;4.33;2.93;;;;;;;4.47;nan;97377.13;5047864;28;20049;-59
2021/12/08 12:07:40;;;;;;;5.30;3.73;;;;;;;4.38;nan;97362.88;5052857;28;20049;-58
2021/12/08 12:10:11;;;;;;;5.03;3.20;;;;;;;4.35;nan;97372.25;5050766;28;20736;-58
2021/12/08 12:12:39;;;;;;;4.17;3.37;;;;;;;4.26;nan;97375.75;5050747;28;20040;-59
2021/12/08 12:15:06;;;;;;;5.67;3.97;;;;;;;4.17;nan;97372.50;5047203;28;20533;-58
2021/12/08 12:17:32;;;;;;;4.17;3.40;;;;;;;4.05;nan;97378.56;5050360;28;20376;-57
2021/12/08 12:20:04;;;;;;;5.83;3.80;;;;;;;4.17;nan;97373.34;5049200;28;20047;-58
2021/12/08 12:22:41;;;;;;;4.30;3.13;;;;;;;4.23;nan;97378.34;5047655;28;20151;-58
2021/12/08 12:25:41;;;;;;;5.53;3.27;;;;;;;4.29;nan;97367.25;5046204;28;20105;-57
2021/12/08 12:28:28;;;;;;;7.40;4.53;;;;;;;4.21;nan;97364.81;5052567;28;20045;-55
2021/12/08 12:30:56;;;;;;;5.23;3.40;;;;;;;4.12;nan;97377.63;5052632;28;20068;-57
2021/12/08 12:33:22;;;;;;;4.40;3.40;;;;;;;4.22;nan;97383.41;5058750;28;20036;-54
2021/12/08 12:35:53;;;;;;;3.87;3.40;;;;;;;4.20;nan;97370.75;5062239;28;20059;-55
2021/12/08 12:38:37;;;;;;;5.50;3.83;;;;;;;4.23;nan;97367.34;5053160;28;20504;-55